Main page
METAR-TAF:

METAR-TAF

Airports :

Sukhothai Airport

Sukhothai, Thailand

latitude: 17-14-16N, longitude: 099-49-05E, elevation: 55 m

Current weather observation

The report was made 8 hours and 38 minutes ago, at 10:00 UTC
Wind 3 kt from the Northeast
Temperature 26°C
Humidity 30%
Pressure 1016 hPa
Visibility 10 km or more
no clouds below 1500 m and no cumulonimbus

METAR: VTPO 061000Z 04003KT CAVOK 26/07 Q1016 NOSIG

Time: 01:38 (18:38 UTC)

Forecast

The report was made 1 hour and 38 minutes ago, at 17:00 UTC
Forecast valid from 06 at 18 UTC to 07 at 18 UTC
Wind 5 kt from the East/Northeast
Visibility 10 km or more
no clouds below 1500 m and no cumulonimbus

TAF: VTPO 061700Z 0618/0718 06005KT CAVOK

Weather observations and forecasts of more than 4000 airports (METAR and TAF reports).

The available stations are represented by yellow and red dots on the map.

Hover mouse over dot to see the name of the station.

Then click to see weather observations and forecasts.

To change the map : click on the green buttons with a black cross to zoom in, on the green button with a dash to zoom out, or on the green arrows for adjacent maps.


METAR-TAF: